createdAt,value
2022-11-29T07:44:06.420Z,50.90
2022-11-29T07:46:34.951Z,50.85
2022-11-29T07:49:03.392Z,50.50
2022-11-29T07:51:32.346Z,50.59
2022-11-29T07:54:01.136Z,50.16
2022-11-29T07:56:29.869Z,50.23
2022-11-29T07:58:59.986Z,50.06
2022-11-29T08:01:28.451Z,50.26
2022-11-29T08:03:56.920Z,50.05
2022-11-29T08:06:26.383Z,50.02
2022-11-29T08:08:54.844Z,49.88
2022-11-29T08:11:23.305Z,50.06
2022-11-29T08:13:51.724Z,49.89
2022-11-29T08:16:21.529Z,49.80
2022-11-29T08:18:50.046Z,49.76
2022-11-29T08:21:18.529Z,49.67
2022-11-29T08:23:47.531Z,49.10
2022-11-29T08:26:17.317Z,48.95
2022-11-29T08:28:45.946Z,48.82
2022-11-29T08:31:14.448Z,48.82
2022-11-29T08:33:44.646Z,49.88
2022-11-29T08:36:15.235Z,50.08
2022-11-29T08:38:44.191Z,49.87
2022-11-29T08:41:14.547Z,49.88
2022-11-29T08:43:42.952Z,49.71
2022-11-29T08:46:18.039Z,49.83
2022-11-29T08:48:49.141Z,50.23
2022-11-29T08:51:17.892Z,50.01
2022-11-29T08:53:46.487Z,49.73
2022-11-29T08:57:04.309Z,49.89
2022-11-29T08:59:07.061Z,50.03
2022-11-29T09:01:35.639Z,50.01
2022-11-29T09:04:07.606Z,49.81
2022-11-29T09:06:40.140Z,49.75
2022-11-29T09:09:08.971Z,50.20
2022-11-29T09:11:37.790Z,49.74
2022-11-29T09:14:07.740Z,49.34
2022-11-29T09:16:38.108Z,49.27
2022-11-29T09:19:08.712Z,49.47
2022-11-29T09:21:37.593Z,49.43
2022-11-29T09:24:08.007Z,49.47
2022-11-29T09:26:37.974Z,49.39
2022-11-29T09:29:07.751Z,49.32
2022-11-29T09:31:36.404Z,49.38
2022-11-29T09:34:04.845Z,49.48
2022-11-29T09:36:34.635Z,49.41
2022-11-29T09:39:03.758Z,49.38
2022-11-29T09:41:53.330Z,49.70
2022-11-29T09:44:35.827Z,49.46
2022-11-29T09:47:23.663Z,49.51
2022-11-29T09:50:02.304Z,49.53
2022-11-29T09:52:42.949Z,49.47
2022-11-29T09:55:29.482Z,49.52
2022-11-29T09:58:03.728Z,49.84
2022-11-29T10:00:36.622Z,49.34
2022-11-29T10:03:15.034Z,48.72
2022-11-29T10:05:47.615Z,48.63
2022-11-29T10:08:25.496Z,48.29
2022-11-29T10:10:58.935Z,48.13
2022-11-29T10:13:31.842Z,47.94
2022-11-29T10:16:06.617Z,47.96
2022-11-29T10:18:39.029Z,47.52
2022-11-29T10:21:13.598Z,47.69
2022-11-29T10:23:48.119Z,47.59
2022-11-29T10:26:18.021Z,47.58
2022-11-29T10:28:48.658Z,47.34
2022-11-29T10:31:22.091Z,46.93
2022-11-29T10:33:51.254Z,46.87
2022-11-29T10:36:27.755Z,47.15
2022-11-29T10:39:00.562Z,47.08
2022-11-29T10:41:29.271Z,47.10
2022-11-29T10:43:59.673Z,46.93
2022-11-29T10:46:31.846Z,46.85
2022-11-29T10:49:03.689Z,46.98
2022-11-29T10:51:32.959Z,46.80
2022-11-29T10:54:19.161Z,46.49
2022-11-29T10:56:48.978Z,46.66
2022-11-29T10:59:22.295Z,46.45
2022-11-29T11:01:51.873Z,46.24
2022-11-29T11:04:29.440Z,46.71
2022-11-29T11:07:01.279Z,47.05
2022-11-29T11:09:36.366Z,47.44
2022-11-29T11:12:08.546Z,48.00
2022-11-29T11:14:38.737Z,48.16
2022-11-29T11:17:22.281Z,48.20
2022-11-29T11:19:57.341Z,48.65
2022-11-29T11:22:27.332Z,48.91
2022-11-29T11:25:02.914Z,48.81
2022-11-29T11:27:34.264Z,48.82
2022-11-29T11:30:03.414Z,48.93
2022-11-29T11:32:31.962Z,49.16
2022-11-29T11:35:02.795Z,49.39
2022-11-29T11:37:33.421Z,49.45
2022-11-29T11:40:26.320Z,49.39
2022-11-29T11:42:57.380Z,49.58
2022-11-29T11:45:34.970Z,49.55
2022-11-29T11:48:11.634Z,49.55
2022-11-29T11:50:45.321Z,49.52
2022-11-29T11:53:22.272Z,49.42
2022-11-29T11:56:01.739Z,49.37
2022-11-29T11:58:32.235Z,49.24
2022-11-29T12:01:14.398Z,49.29
2022-11-29T12:03:52.716Z,49.45
2022-11-29T12:06:47.197Z,49.61
2022-11-29T12:09:24.523Z,49.67
2022-11-29T12:12:05.328Z,49.53
2022-11-29T12:14:52.776Z,49.65
2022-11-29T12:17:31.926Z,49.97
2022-11-29T12:20:12.950Z,49.94
2022-11-29T12:22:49.702Z,49.89
2022-11-29T12:25:22.645Z,50.22
2022-11-29T12:27:52.707Z,50.17
2022-11-29T12:30:21.133Z,50.41
2022-11-29T12:33:02.532Z,50.54
2022-11-29T12:35:54.827Z,50.55
2022-11-29T12:38:44.190Z,50.50
2022-11-29T12:41:30.336Z,50.64
2022-11-29T12:44:06.171Z,50.64
2022-11-29T12:46:35.551Z,50.74
2022-11-29T12:49:17.002Z,50.65
2022-11-29T12:51:56.091Z,50.62
2022-11-29T12:54:38.401Z,50.79
2022-11-29T12:57:16.591Z,50.94
2022-11-29T13:00:09.045Z,50.82
2022-11-29T13:02:53.653Z,50.99
2022-11-29T13:05:35.247Z,50.99
2022-11-29T13:08:24.505Z,51.07
2022-11-29T13:11:03.655Z,51.16
2022-11-29T13:13:40.450Z,51.13
2022-11-29T13:16:30.841Z,50.88
2022-11-29T13:19:07.531Z,51.34
2022-11-29T13:21:44.660Z,51.18
2022-11-29T13:24:20.859Z,51.24
2022-11-29T13:26:50.563Z,51.20
2022-11-29T13:29:20.037Z,51.40
2022-11-29T13:31:50.908Z,51.18
2022-11-29T13:34:25.601Z,50.99
2022-11-29T13:37:05.672Z,50.94
2022-11-29T13:39:49.027Z,51.32
2022-11-29T13:42:22.986Z,51.30
2022-11-29T13:44:56.625Z,51.35
2022-11-29T13:47:26.729Z,51.47
2022-11-29T13:50:02.180Z,51.27
2022-11-29T13:52:38.619Z,51.43
2022-11-29T13:55:18.382Z,51.33
2022-11-29T14:00:50.980Z,51.42
2022-11-29T14:03:33.404Z,51.46
2022-11-29T14:06:12.647Z,51.50
2022-11-29T14:09:18.476Z,51.55
2022-11-29T14:11:50.397Z,51.53
2022-11-29T14:14:26.088Z,51.44
2022-11-29T14:16:58.711Z,51.33
2022-11-29T14:19:33.709Z,51.48
2022-11-29T14:22:30.317Z,51.49
2022-11-29T14:25:49.619Z,51.62
2022-11-29T14:28:30.295Z,51.62
2022-11-29T14:31:01.433Z,51.61
2022-11-29T14:33:39.213Z,51.65
2022-11-29T14:36:22.105Z,51.83
2022-11-29T14:38:57.916Z,51.68
2022-11-29T14:41:34.088Z,51.83
2022-11-29T14:44:18.912Z,51.79
2022-11-29T14:46:48.853Z,51.85
2022-11-29T14:49:23.454Z,51.88
2022-11-29T14:52:21.507Z,51.88
2022-11-29T14:55:09.339Z,51.93
2022-11-29T14:58:18.282Z,51.85
2022-11-29T15:01:01.765Z,51.86
2022-11-29T15:03:43.459Z,51.60
2022-11-29T15:06:16.496Z,52.02
2022-11-29T15:08:58.423Z,51.75
2022-11-29T15:11:36.487Z,51.82
2022-11-29T15:14:07.943Z,51.78
2022-11-29T15:17:10.455Z,51.76
2022-11-29T15:20:15.170Z,51.74
2022-11-29T15:22:52.348Z,51.80
2022-11-29T15:25:24.480Z,51.78
2022-11-29T15:27:54.746Z,51.58
2022-11-29T15:30:30.971Z,51.70
2022-11-29T15:33:01.238Z,51.63
2022-11-29T15:35:30.044Z,51.77
2022-11-29T15:37:58.609Z,51.84
2022-11-29T15:40:35.352Z,51.77
2022-11-29T15:43:16.717Z,51.79
2022-11-29T15:45:48.581Z,51.89
2022-11-29T15:48:20.139Z,51.84
2022-11-29T15:50:57.457Z,51.80
2022-11-29T15:53:30.063Z,52.08
2022-11-29T15:56:03.049Z,51.37
2022-11-29T15:58:34.561Z,51.07
2022-11-29T16:01:04.425Z,51.45
2022-11-29T16:03:36.545Z,51.71
2022-11-29T16:06:10.198Z,51.80
2022-11-29T16:08:43.389Z,52.37
2022-11-29T16:11:18.116Z,53.11
2022-11-29T16:14:14.454Z,52.61
2022-11-29T16:16:45.995Z,52.63
2022-11-29T16:19:31.701Z,52.22
2022-11-29T16:22:09.836Z,52.61
2022-11-29T16:24:39.518Z,52.37
2022-11-29T16:27:09.506Z,52.37
2022-11-29T16:29:44.918Z,52.46
2022-11-29T16:32:15.801Z,52.66
2022-11-29T16:34:45.503Z,52.43
2022-11-29T16:37:19.569Z,52.24
2022-11-29T16:39:50.631Z,52.43
2022-11-29T16:42:25.942Z,52.47
2022-11-29T16:45:28.925Z,52.82
2022-11-29T16:47:59.607Z,52.84
2022-11-29T16:50:29.788Z,52.67
2022-11-29T16:53:34.823Z,52.20
2022-11-29T16:56:03.308Z,51.63
2022-11-29T16:58:32.009Z,50.31
2022-11-29T17:01:00.514Z,50.07
2022-11-29T17:03:30.509Z,49.95
2022-11-29T17:05:59.201Z,50.18
2022-11-29T17:08:28.000Z,50.06
2022-11-29T17:10:56.464Z,49.86
2022-11-29T17:13:25.181Z,49.72
2022-11-29T17:15:53.585Z,49.69
2022-11-29T17:18:22.318Z,49.39
2022-11-29T17:20:55.527Z,49.43
2022-11-29T17:23:24.473Z,49.30
2022-11-29T17:26:00.140Z,49.14
2022-11-29T17:28:28.986Z,48.89
2022-11-29T17:30:57.547Z,49.17
2022-11-29T17:33:25.987Z,49.45
2022-11-29T17:35:55.807Z,49.37
2022-11-29T17:38:24.284Z,49.38
2022-11-29T17:40:52.694Z,49.39
2022-11-29T17:43:21.101Z,49.62
2022-11-29T17:45:49.599Z,49.60
2022-11-29T17:48:18.660Z,49.76
2022-11-29T17:50:47.075Z,49.76
2022-11-29T17:53:16.841Z,49.73
2022-11-29T17:55:45.221Z,49.62
2022-11-29T17:58:14.066Z,49.73
2022-11-29T18:00:42.533Z,48.68
2022-11-29T18:03:11.007Z,48.61
2022-11-29T18:05:39.483Z,48.54
2022-11-29T18:08:08.123Z,48.95
2022-11-29T18:10:37.931Z,49.34
2022-11-29T18:13:06.358Z,49.59
2022-11-29T18:15:34.827Z,49.67
2022-11-29T18:18:03.279Z,49.81
2022-11-29T18:20:31.728Z,49.90
2022-11-29T18:23:04.997Z,50.08
2022-11-29T18:25:39.174Z,50.08
2022-11-29T18:28:11.235Z,50.19
2022-11-29T18:30:39.780Z,50.03
2022-11-29T18:33:08.235Z,50.28
2022-11-29T18:35:36.687Z,50.31
2022-11-29T18:38:20.422Z,50.22
2022-11-29T18:40:48.862Z,50.14
2022-11-29T18:43:18.606Z,50.23
2022-11-29T18:45:47.208Z,50.23
2022-11-29T18:48:15.652Z,50.07
2022-11-29T18:50:44.057Z,50.02
2022-11-29T18:53:13.805Z,50.17
2022-11-29T18:55:42.382Z,50.00
2022-11-29T18:58:10.797Z,50.05
2022-11-29T19:00:40.818Z,50.04
2022-11-29T19:03:09.317Z,50.15
2022-11-29T19:05:37.732Z,50.08
2022-11-29T19:08:06.352Z,50.22
2022-11-29T19:10:34.758Z,50.07
2022-11-29T19:13:03.126Z,50.28
2022-11-29T19:15:31.583Z,50.27
2022-11-29T19:18:01.366Z,50.26
2022-11-29T19:20:30.797Z,50.32
2022-11-29T19:23:02.396Z,50.42
2022-11-29T19:25:30.820Z,50.10
2022-11-29T19:27:59.280Z,50.36
2022-11-29T19:30:27.749Z,50.13
2022-11-29T19:32:56.591Z,50.24
2022-11-29T19:35:26.416Z,50.31
2022-11-29T19:37:55.087Z,50.18
2022-11-29T19:40:23.574Z,50.08
2022-11-29T19:42:52.012Z,50.02
2022-11-29T19:45:21.825Z,50.31
2022-11-29T19:47:50.600Z,50.25
2022-11-29T19:50:19.222Z,50.19
2022-11-29T19:52:49.049Z,50.13
2022-11-29T19:55:17.503Z,50.00
2022-11-29T19:57:45.884Z,49.90
2022-11-29T20:00:15.406Z,49.81
2022-11-29T20:02:43.989Z,49.93
2022-11-29T20:05:12.984Z,49.73
2022-11-29T20:07:41.459Z,49.78
2022-11-29T20:10:12.180Z,49.57
2022-11-29T20:12:40.659Z,49.39
2022-11-29T20:15:09.699Z,49.36
2022-11-29T20:17:38.383Z,49.50
2022-11-29T20:20:08.295Z,49.40
2022-11-29T20:22:37.179Z,49.38
2022-11-29T20:25:06.649Z,49.37
2022-11-29T20:27:37.022Z,49.10
2022-11-29T20:30:06.377Z,49.13
2022-11-29T20:32:35.991Z,49.07
2022-11-29T20:35:05.063Z,49.21
2022-11-29T20:37:54.086Z,48.98
2022-11-29T20:40:29.011Z,48.81
2022-11-29T20:43:08.103Z,49.09
2022-11-29T20:45:37.534Z,48.84
2022-11-29T20:48:16.091Z,48.68
2022-11-29T20:50:47.963Z,48.83
2022-11-29T20:53:30.909Z,48.66
2022-11-29T20:55:59.957Z,48.74
2022-11-29T20:58:30.075Z,48.73
2022-11-29T21:00:58.911Z,48.65
2022-11-29T21:03:28.388Z,48.54
2022-11-29T21:05:58.027Z,48.65
2022-11-29T21:08:27.289Z,48.57
2022-11-29T21:11:01.751Z,48.36
2022-11-29T21:13:34.178Z,48.53
2022-11-29T21:16:03.497Z,48.48
2022-11-29T21:18:33.775Z,48.70
2022-11-29T21:21:14.943Z,48.48
2022-11-29T21:23:55.394Z,48.45
2022-11-29T21:26:26.828Z,48.39
2022-11-29T21:29:08.191Z,48.32
2022-11-29T21:31:37.460Z,48.40
2022-11-29T21:34:06.037Z,48.39
2022-11-29T21:36:34.444Z,48.44
2022-11-29T21:39:05.276Z,48.19
2022-11-29T21:41:33.926Z,48.42
2022-11-29T21:44:08.061Z,48.53
2022-11-29T21:46:36.974Z,48.19
2022-11-29T21:49:06.148Z,48.18
2022-11-29T21:51:34.839Z,48.25
2022-11-29T21:54:03.383Z,48.24
2022-11-29T21:56:31.846Z,48.12
2022-11-29T21:59:00.313Z,48.21
2022-11-29T22:01:30.469Z,48.13
2022-11-29T22:03:58.970Z,48.14
2022-11-29T22:06:29.181Z,48.05
2022-11-29T22:08:58.018Z,48.19
2022-11-29T22:11:34.104Z,47.95
2022-11-29T22:14:17.977Z,48.23
2022-11-29T22:16:49.534Z,48.14
2022-11-29T22:19:19.592Z,47.84
2022-11-29T22:21:49.696Z,48.01
2022-11-29T22:24:19.630Z,48.03
2022-11-29T22:26:48.765Z,48.03
2022-11-29T22:29:17.498Z,48.08
2022-11-29T22:31:48.753Z,47.93
2022-11-29T22:34:17.759Z,47.91
2022-11-29T22:36:46.705Z,47.79
2022-11-29T22:39:15.715Z,47.97
2022-11-29T22:41:46.110Z,47.91
2022-11-29T22:44:17.929Z,47.84
2022-11-29T22:46:47.782Z,47.82
2022-11-29T22:49:16.499Z,47.93
2022-11-29T22:51:44.971Z,47.74
2022-11-29T22:54:15.328Z,47.84
2022-11-29T22:56:45.622Z,47.93
2022-11-29T22:59:14.952Z,47.84
2022-11-29T23:01:43.960Z,47.97
2022-11-29T23:04:14.105Z,47.82
2022-11-29T23:06:44.098Z,47.57
2022-11-29T23:09:16.554Z,47.58
2022-11-29T23:11:46.579Z,47.66
2022-11-29T23:14:14.989Z,47.62
2022-11-29T23:16:43.509Z,47.65
2022-11-29T23:19:12.246Z,47.58
2022-11-29T23:21:44.584Z,47.82
2022-11-29T23:24:13.513Z,47.56
2022-11-29T23:26:44.181Z,47.76
2022-11-29T23:29:14.623Z,47.65
2022-11-29T23:31:43.392Z,47.89
2022-11-29T23:34:11.903Z,47.57
2022-11-29T23:36:40.364Z,47.69
2022-11-29T23:39:10.359Z,47.81
2022-11-29T23:41:38.871Z,47.75
2022-11-29T23:44:08.699Z,47.49
2022-11-29T23:46:37.382Z,47.69
2022-11-29T23:49:05.864Z,47.59
2022-11-29T23:51:34.316Z,47.65
2022-11-29T23:54:02.709Z,47.54
2022-11-29T23:56:35.214Z,47.53
2022-11-29T23:59:03.768Z,47.41
